Bruce, South Dakota
Current Conditions -  °F | °C
As of 6:30 PM on Sunday 25 Jan 2015 (Local Time) from KMDS Reporting Station
Overcast Overcast  
Wind Chill: 24°   Ceiling: 800
Heat Index: 32°   Visibility: 10mi
Dew Point: 32°   Wind: 10mph
Humidity: 100%   Direction: 270°W
Pressure: 30"   Gusts: NA
Location:  44.44°N, 96.89°W
Report Text: KMDS 260030Z AUTO 27009KT 10SM OVC008 00/00 A3000 RMK AO2
Loading
Personal Weather Stations






























Interactive Weather Map New forecast layout! Learn more

10-Day Weather Forecast

Advertisements
Track Severe Weather on mobile